createdAt,value
2023-02-03T00:01:24.412Z,31.09
2023-02-03T00:04:27.444Z,31.04
2023-02-03T00:07:30.926Z,31.17
2023-02-03T00:10:35.083Z,31.13
2023-02-03T00:13:39.562Z,31.08
2023-02-03T00:16:42.606Z,30.98
2023-02-03T00:19:45.607Z,31.21
2023-02-03T00:22:48.636Z,31.38
2023-02-03T00:25:51.676Z,31.27
2023-02-03T00:28:56.262Z,31.28
2023-02-03T00:32:00.013Z,31.21
2023-02-03T00:35:03.105Z,31.23
2023-02-03T00:38:06.108Z,31.21
2023-02-03T00:41:09.286Z,31.24
2023-02-03T00:44:13.655Z,31.14
2023-02-03T00:47:19.226Z,30.95
2023-02-03T00:50:22.218Z,31.06
2023-02-03T00:53:27.076Z,31.15
2023-02-03T00:56:30.051Z,30.99
2023-02-03T00:59:34.461Z,31.01
2023-02-03T01:02:37.576Z,31.33
2023-02-03T01:05:40.617Z,31.20
2023-02-03T01:08:45.552Z,31.16
2023-02-03T01:14:52.718Z,31.09
2023-02-03T01:17:58.109Z,31.14
2023-02-03T01:21:06.493Z,31.12
2023-02-03T01:24:10.294Z,30.97
2023-02-03T01:27:15.594Z,30.84
2023-02-03T01:30:20.573Z,30.90
2023-02-03T01:33:23.601Z,31.00
2023-02-03T01:36:29.256Z,31.10
2023-02-03T01:39:32.247Z,31.00
2023-02-03T01:42:35.411Z,31.15
2023-02-03T01:45:41.412Z,31.09
2023-02-03T01:48:44.502Z,31.01
2023-02-03T01:51:48.101Z,30.75
2023-02-03T01:55:02.083Z,31.06
2023-02-03T01:58:08.831Z,30.88
2023-02-03T02:01:13.527Z,31.00
2023-02-03T02:04:17.463Z,30.77
2023-02-03T02:07:20.430Z,30.94
2023-02-03T02:10:23.515Z,30.97
2023-02-03T02:13:30.065Z,30.88
2023-02-03T02:16:45.927Z,30.91
2023-02-03T02:20:23.446Z,30.71
2023-02-03T02:23:45.937Z,30.91
2023-02-03T02:27:07.660Z,31.01
2023-02-03T02:30:31.615Z,30.90
2023-02-03T02:33:43.734Z,31.13
2023-02-03T02:37:01.264Z,30.90
2023-02-03T02:40:12.399Z,30.89
2023-02-03T02:43:24.498Z,30.87
2023-02-03T02:46:34.221Z,30.98
2023-02-03T02:49:46.031Z,30.87
2023-02-03T02:52:53.478Z,30.83
2023-02-03T02:55:59.636Z,30.75
2023-02-03T02:59:07.521Z,30.96
2023-02-03T03:02:12.133Z,31.07
2023-02-03T03:05:19.201Z,31.02
2023-02-03T03:08:29.435Z,30.82
2023-02-03T03:11:45.963Z,30.92
2023-02-03T03:14:51.915Z,31.10
2023-02-03T03:18:00.494Z,30.74
2023-02-03T03:21:08.106Z,30.82
2023-02-03T03:24:23.958Z,30.37
2023-02-03T03:27:33.753Z,30.53
2023-02-03T03:30:38.615Z,30.63
2023-02-03T03:33:41.940Z,30.93
2023-02-03T03:36:52.352Z,30.86
2023-02-03T03:39:57.701Z,30.75
2023-02-03T03:43:04.625Z,30.58
2023-02-03T03:46:13.596Z,30.63
2023-02-03T03:49:20.139Z,30.95
2023-02-03T03:52:30.105Z,30.65
2023-02-03T03:55:36.093Z,30.80
2023-02-03T03:58:41.326Z,30.88
2023-02-03T04:01:44.898Z,30.79
2023-02-03T04:04:49.014Z,30.29
2023-02-03T04:07:55.556Z,30.58
2023-02-03T04:10:58.678Z,30.59
2023-02-03T04:14:03.770Z,30.38
2023-02-03T04:17:07.141Z,30.13
2023-02-03T04:20:13.714Z,29.88
2023-02-03T04:23:18.191Z,29.26
2023-02-03T04:26:21.165Z,29.11
2023-02-03T04:29:24.170Z,28.91
2023-02-03T04:32:27.160Z,28.49
2023-02-03T04:35:30.170Z,28.10
2023-02-03T04:38:34.606Z,27.88
2023-02-03T04:41:37.578Z,28.15
2023-02-03T04:44:40.523Z,27.85
2023-02-03T04:47:45.839Z,27.92
2023-02-03T04:50:56.095Z,27.95
2023-02-03T04:54:00.426Z,27.93
2023-02-03T04:57:03.560Z,28.03
2023-02-03T05:00:07.902Z,27.96
2023-02-03T05:03:10.900Z,28.05
2023-02-03T05:06:13.932Z,28.54
2023-02-03T05:09:18.528Z,28.07
2023-02-03T05:12:21.534Z,28.20
2023-02-03T05:15:26.729Z,28.80
2023-02-03T05:18:31.652Z,29.02
2023-02-03T05:21:34.629Z,29.24
2023-02-03T05:24:39.139Z,29.56
2023-02-03T05:27:43.146Z,29.56
2023-02-03T05:30:48.380Z,29.82
2023-02-03T05:33:51.386Z,30.22
2023-02-03T05:36:54.463Z,30.08
2023-02-03T05:40:18.842Z,30.14
2023-02-03T05:43:20.813Z,30.31
2023-02-03T05:46:23.874Z,30.09
2023-02-03T05:49:27.491Z,30.47
2023-02-03T05:52:30.473Z,30.27
2023-02-03T05:55:35.484Z,30.28
2023-02-03T05:58:38.506Z,30.11
2023-02-03T06:01:44.324Z,30.16
2023-02-03T06:04:49.387Z,30.25
2023-02-03T06:07:52.964Z,29.98
2023-02-03T06:11:00.835Z,30.13
2023-02-03T06:14:04.223Z,30.14
2023-02-03T06:17:14.348Z,30.05
2023-02-03T06:20:20.082Z,30.09
2023-02-03T06:23:23.571Z,30.02
2023-02-03T06:26:28.014Z,30.01
2023-02-03T06:29:33.009Z,29.85
2023-02-03T06:32:36.149Z,29.70
2023-02-03T06:38:41.817Z,29.50
2023-02-03T06:41:46.363Z,29.79
2023-02-03T06:44:49.357Z,29.05
2023-02-03T06:47:54.762Z,29.07
2023-02-03T06:50:57.718Z,29.30
2023-02-03T06:54:00.813Z,29.13
2023-02-03T06:57:05.274Z,29.18
2023-02-03T07:00:10.594Z,28.36
2023-02-03T07:03:14.197Z,28.54
2023-02-03T07:06:18.933Z,28.78
2023-02-03T07:09:21.970Z,28.40
2023-02-03T07:12:35.065Z,28.37
2023-02-03T07:15:38.268Z,28.73
2023-02-03T07:18:47.255Z,28.39
2023-02-03T07:21:51.260Z,28.25
2023-02-03T07:24:54.223Z,28.43
2023-02-03T07:27:58.671Z,28.73
2023-02-03T07:31:02.131Z,28.30
2023-02-03T07:34:05.198Z,28.25
2023-02-03T07:37:08.323Z,28.45
2023-02-03T07:40:19.829Z,28.99
2023-02-03T07:43:26.387Z,28.79
2023-02-03T07:46:31.714Z,29.04
2023-02-03T07:49:34.778Z,29.11
2023-02-03T07:52:38.015Z,29.21
2023-02-03T07:55:41.438Z,29.28
2023-02-03T07:58:48.406Z,28.87
2023-02-03T08:01:51.436Z,28.57
2023-02-03T08:04:57.094Z,29.10
2023-02-03T08:08:00.153Z,28.61
2023-02-03T08:11:03.434Z,28.98
2023-02-03T08:14:08.081Z,29.24
2023-02-03T08:17:12.469Z,28.80
2023-02-03T08:20:16.574Z,28.82
2023-02-03T08:23:19.651Z,28.55
2023-02-03T08:26:22.658Z,29.00
2023-02-03T08:29:28.880Z,28.91
2023-02-03T08:32:31.937Z,29.02
2023-02-03T08:35:36.456Z,28.91
2023-02-03T08:38:39.855Z,29.33
2023-02-03T08:41:44.727Z,29.33
2023-02-03T08:44:49.402Z,29.63
2023-02-03T08:47:52.678Z,29.05
2023-02-03T08:50:58.488Z,29.75
2023-02-03T08:54:01.614Z,29.21
2023-02-03T08:57:04.882Z,29.56
2023-02-03T09:00:11.119Z,29.80
2023-02-03T09:03:14.184Z,29.64
2023-02-03T09:06:17.697Z,29.66
2023-02-03T09:09:22.767Z,30.32
2023-02-03T09:12:25.740Z,30.18
2023-02-03T09:15:30.149Z,30.17
2023-02-03T09:18:33.282Z,29.95
2023-02-03T09:21:44.905Z,30.06
2023-02-03T09:24:53.135Z,30.01
2023-02-03T09:27:56.199Z,29.96
2023-02-03T09:31:02.611Z,29.76
2023-02-03T09:34:05.880Z,30.19
2023-02-03T09:37:11.331Z,29.67
2023-02-03T09:40:21.871Z,29.71
2023-02-03T09:43:38.434Z,29.87
2023-02-03T09:46:45.380Z,29.90
2023-02-03T09:49:53.989Z,29.96
2023-02-03T09:52:59.175Z,29.93
2023-02-03T09:56:02.540Z,29.88
2023-02-03T09:59:05.647Z,29.72
2023-02-03T10:02:26.491Z,29.84
2023-02-03T10:05:53.617Z,29.39
2023-02-03T10:09:35.459Z,29.81
2023-02-03T10:12:54.821Z,29.99
2023-02-03T10:16:12.785Z,29.57
2023-02-03T10:19:21.462Z,29.81
2023-02-03T10:22:37.513Z,29.35
2023-02-03T10:25:44.565Z,29.78
2023-02-03T10:28:54.483Z,29.51
2023-02-03T10:31:58.963Z,30.00
2023-02-03T10:35:03.467Z,29.89
2023-02-03T10:38:16.528Z,29.58
2023-02-03T10:41:23.679Z,30.20
2023-02-03T10:44:37.148Z,30.32
2023-02-03T10:47:45.513Z,30.29
2023-02-03T10:50:54.533Z,30.31
2023-02-03T10:54:00.157Z,29.91
2023-02-03T10:57:06.028Z,30.29
2023-02-03T11:00:23.769Z,30.05
2023-02-03T11:03:31.786Z,30.24
2023-02-03T11:06:36.763Z,30.35
2023-02-03T11:09:41.425Z,30.14
2023-02-03T11:12:45.662Z,30.47
2023-02-03T11:15:58.236Z,30.08
2023-02-03T11:19:03.584Z,30.21
2023-02-03T11:22:08.208Z,30.45
2023-02-03T11:25:20.144Z,29.86
2023-02-03T11:28:30.464Z,30.14
2023-02-03T11:31:36.452Z,30.18
2023-02-03T11:34:43.033Z,30.15
2023-02-03T11:37:48.494Z,30.33
2023-02-03T11:41:01.238Z,29.73
2023-02-03T11:44:12.561Z,30.23
2023-02-03T11:47:19.665Z,29.79
2023-02-03T11:50:30.077Z,30.29
2023-02-03T11:53:57.384Z,30.20
2023-02-03T11:57:19.006Z,29.91
2023-02-03T12:00:31.265Z,29.79
2023-02-03T12:03:59.906Z,30.40
2023-02-03T12:07:18.745Z,30.19
2023-02-03T12:10:43.303Z,30.26
2023-02-03T12:14:08.832Z,30.52
2023-02-03T12:17:48.346Z,30.67
2023-02-03T12:21:13.310Z,30.57
2023-02-03T12:24:28.759Z,30.47
2023-02-03T12:27:50.792Z,30.31
2023-02-03T12:31:00.522Z,30.76
2023-02-03T12:34:18.121Z,30.59
2023-02-03T12:37:26.732Z,30.21
2023-02-03T12:40:37.864Z,30.49
2023-02-03T12:43:49.386Z,30.45
2023-02-03T12:47:01.361Z,30.53
2023-02-03T12:50:13.492Z,30.42
2023-02-03T12:53:20.681Z,30.39
2023-02-03T12:56:30.742Z,30.42
2023-02-03T12:59:39.382Z,30.51
2023-02-03T13:02:54.376Z,30.24
2023-02-03T13:06:09.483Z,30.52
2023-02-03T13:09:25.199Z,29.96
2023-02-03T13:12:31.958Z,29.96
2023-02-03T13:15:41.860Z,29.98
2023-02-03T13:18:51.475Z,30.04
2023-02-03T13:21:54.627Z,30.40
2023-02-03T13:25:08.648Z,30.19
2023-02-03T13:28:22.084Z,30.37
2023-02-03T13:31:39.747Z,30.12
2023-02-03T13:35:05.716Z,30.21
2023-02-03T13:38:26.963Z,30.07
2023-02-03T13:41:38.926Z,30.24
2023-02-03T13:44:48.154Z,30.21
2023-02-03T13:47:56.153Z,29.94
2023-02-03T13:51:08.377Z,30.09
2023-02-03T13:54:18.207Z,30.09
2023-02-03T13:57:24.045Z,30.16
2023-02-03T14:01:04.231Z,30.26
2023-02-03T14:04:14.344Z,30.22
2023-02-03T14:07:32.151Z,29.94
2023-02-03T14:10:36.900Z,30.21
2023-02-03T14:13:40.048Z,30.24
2023-02-03T14:16:44.077Z,30.02
2023-02-03T14:19:57.363Z,29.93
2023-02-03T14:23:08.428Z,30.17
2023-02-03T14:26:20.753Z,29.79
2023-02-03T14:29:29.621Z,29.98
2023-02-03T14:32:50.687Z,29.66
2023-02-03T14:35:55.345Z,29.96
2023-02-03T14:39:01.516Z,29.95
2023-02-03T14:42:14.436Z,29.86
2023-02-03T14:46:01.919Z,29.75
2023-02-03T14:49:28.237Z,29.83
2023-02-03T14:53:03.195Z,29.69
2023-02-03T14:56:20.690Z,29.80
2023-02-03T14:59:29.791Z,29.81
2023-02-03T15:02:34.698Z,29.92
2023-02-03T15:05:41.343Z,29.92
2023-02-03T15:08:47.380Z,29.72
2023-02-03T15:11:50.438Z,29.52
2023-02-03T15:14:53.933Z,29.71
2023-02-03T15:17:59.657Z,29.71
2023-02-03T15:21:05.461Z,29.83
2023-02-03T15:24:15.641Z,29.93
2023-02-03T15:27:23.633Z,29.64
2023-02-03T15:30:29.891Z,29.54
2023-02-03T15:33:35.179Z,29.81
2023-02-03T15:36:47.443Z,29.49
2023-02-03T15:40:00.754Z,29.33
2023-02-03T15:43:15.584Z,29.62
2023-02-03T15:46:24.337Z,29.43
2023-02-03T15:49:31.263Z,29.50
2023-02-03T15:52:41.357Z,29.65
2023-02-03T15:55:48.202Z,29.18
2023-02-03T15:58:51.721Z,29.14
2023-02-03T16:01:55.467Z,29.48
2023-02-03T16:04:58.922Z,28.90
2023-02-03T16:08:31.668Z,29.46
2023-02-03T16:11:37.983Z,29.26
2023-02-03T16:14:43.292Z,29.46
2023-02-03T16:17:48.620Z,29.08
2023-02-03T16:20:52.951Z,29.16
2023-02-03T16:23:57.788Z,29.07
2023-02-03T16:27:36.847Z,28.88
2023-02-03T16:31:10.794Z,29.17
2023-02-03T16:34:33.438Z,29.86
2023-02-03T16:38:02.885Z,29.87
2023-02-03T16:41:34.896Z,29.93
2023-02-03T16:44:55.315Z,30.66
2023-02-03T16:48:17.410Z,30.71
2023-02-03T16:51:21.402Z,30.62
2023-02-03T16:54:24.666Z,31.11
2023-02-03T16:57:28.822Z,30.88
2023-02-03T17:00:31.899Z,30.54
2023-02-03T17:03:37.868Z,30.23
2023-02-03T17:06:41.949Z,30.07
2023-02-03T17:09:45.175Z,29.59
2023-02-03T17:12:49.393Z,29.12
2023-02-03T17:15:53.812Z,28.78
2023-02-03T17:18:58.224Z,28.65
2023-02-03T17:22:03.648Z,28.53
2023-02-03T17:25:07.816Z,28.60
2023-02-03T17:28:12.311Z,28.64
2023-02-03T17:31:17.450Z,28.88
2023-02-03T17:34:22.436Z,28.87
2023-02-03T17:37:25.487Z,30.17
2023-02-03T17:53:55.723Z,30.37
2023-02-03T17:57:00.652Z,30.47
2023-02-03T18:00:04.370Z,30.44
2023-02-03T18:03:07.391Z,30.23
2023-02-03T18:06:12.551Z,30.51
2023-02-03T18:09:17.797Z,30.67
2023-02-03T18:12:25.186Z,30.86
2023-02-03T18:15:28.404Z,32.11
2023-02-03T18:18:31.864Z,32.22
2023-02-03T18:21:39.725Z,32.55
2023-02-03T18:24:47.075Z,32.56
2023-02-03T18:27:51.657Z,32.27
2023-02-03T18:31:00.155Z,32.19
2023-02-03T18:34:04.623Z,31.94
2023-02-03T18:37:09.774Z,31.34
2023-02-03T18:40:13.031Z,31.58
2023-02-03T18:43:22.149Z,31.68
2023-02-03T18:46:27.165Z,31.96
2023-02-03T18:49:31.331Z,29.58
2023-02-03T18:52:37.783Z,27.35
2023-02-03T18:55:54.598Z,27.53
2023-02-03T18:58:57.604Z,27.19
2023-02-03T19:02:01.366Z,26.46
2023-02-03T19:05:05.528Z,26.42
2023-02-03T19:08:10.128Z,26.80
2023-02-03T19:11:14.430Z,26.08
2023-02-03T19:14:17.584Z,26.07
2023-02-03T19:17:22.994Z,26.11
2023-02-03T19:20:26.075Z,26.08
2023-02-03T19:23:30.548Z,26.07
2023-02-03T19:26:33.632Z,25.93
2023-02-03T19:29:38.698Z,26.33
2023-02-03T19:32:43.462Z,26.50
2023-02-03T19:35:50.204Z,26.74
2023-02-03T19:38:54.738Z,26.68
2023-02-03T19:41:57.777Z,27.10
2023-02-03T19:45:00.754Z,27.19
2023-02-03T19:48:03.900Z,27.45
2023-02-03T19:51:09.415Z,27.79
2023-02-03T19:54:15.066Z,27.94
2023-02-03T19:57:18.069Z,28.03
2023-02-03T20:00:22.035Z,28.04
2023-02-03T20:03:29.101Z,27.90
2023-02-03T20:06:32.641Z,28.16
2023-02-03T20:09:37.038Z,28.16
2023-02-03T20:12:40.016Z,28.35
2023-02-03T20:15:47.197Z,28.29
2023-02-03T20:18:50.487Z,28.45
2023-02-03T20:21:53.444Z,28.51
2023-02-03T20:24:58.712Z,28.47
2023-02-03T20:28:02.672Z,28.62
2023-02-03T20:31:08.725Z,28.65
2023-02-03T20:34:11.878Z,28.67
2023-02-03T20:37:14.849Z,28.93
2023-02-03T20:40:22.471Z,29.27
2023-02-03T20:43:27.723Z,29.10
2023-02-03T20:46:30.796Z,29.27
2023-02-03T20:49:33.929Z,29.05
2023-02-03T20:52:37.006Z,29.13
2023-02-03T20:55:44.160Z,28.97
2023-02-03T20:58:47.197Z,29.26
2023-02-03T21:01:50.766Z,29.09
2023-02-03T21:04:58.829Z,29.21
2023-02-03T21:08:01.888Z,29.21
2023-02-03T21:11:11.762Z,29.41
2023-02-03T21:14:22.643Z,29.70
2023-02-03T21:17:27.524Z,29.52
2023-02-03T21:20:34.813Z,29.77
2023-02-03T21:23:48.554Z,29.75
2023-02-03T21:26:53.242Z,29.58
2023-02-03T21:29:57.605Z,29.56
2023-02-03T21:33:01.620Z,29.36
2023-02-03T21:36:04.878Z,29.51
2023-02-03T21:39:25.092Z,29.33
2023-02-03T21:42:46.002Z,29.72
2023-02-03T21:45:50.395Z,29.57
2023-02-03T21:48:54.586Z,29.64
2023-02-03T21:51:57.648Z,29.70
2023-02-03T21:55:00.695Z,29.45
2023-02-03T21:58:19.831Z,29.86
2023-02-03T22:01:24.310Z,29.82
2023-02-03T22:04:31.301Z,29.66
2023-02-03T22:07:34.410Z,29.81
2023-02-03T22:10:37.357Z,29.87
2023-02-03T22:13:41.785Z,30.10
2023-02-03T22:16:45.106Z,29.73
2023-02-03T22:19:48.176Z,30.29
2023-02-03T22:22:51.186Z,30.07
2023-02-03T22:25:55.979Z,30.43
2023-02-03T22:29:00.352Z,30.27
2023-02-03T22:32:05.537Z,30.12
2023-02-03T22:35:09.294Z,30.69
2023-02-03T22:38:12.380Z,31.02
2023-02-03T22:41:15.351Z,31.33
2023-02-03T22:44:21.087Z,31.32
2023-02-03T22:47:24.431Z,32.54
2023-02-03T22:50:35.570Z,32.20
2023-02-03T22:53:39.934Z,32.23
2023-02-03T22:56:42.952Z,32.51
2023-02-03T22:59:49.661Z,32.69
2023-02-03T23:02:52.846Z,32.94
2023-02-03T23:05:56.577Z,33.25
2023-02-03T23:09:02.217Z,33.24
2023-02-03T23:12:06.059Z,33.58
2023-02-03T23:15:11.672Z,33.57
2023-02-03T23:18:14.709Z,33.81
2023-02-03T23:21:17.731Z,33.74
2023-02-03T23:24:20.811Z,33.93
2023-02-03T23:27:23.846Z,34.02
2023-02-03T23:30:30.376Z,33.91
2023-02-03T23:33:33.722Z,34.17
2023-02-03T23:36:35.714Z,34.47
2023-02-03T23:39:41.051Z,34.56
2023-02-03T23:42:46.117Z,34.39
2023-02-03T23:45:52.778Z,34.66
2023-02-03T23:48:55.760Z,34.83
2023-02-03T23:51:58.795Z,35.21
2023-02-03T23:55:01.895Z,35.06
2023-02-03T23:58:06.076Z,35.15
